createdAt,value
2018-06-04T00:00:16.337Z,87.49
2018-06-04T00:01:16.341Z,87.40
2018-06-04T00:02:16.357Z,87.40
2018-06-04T00:03:16.370Z,87.88
2018-06-04T00:04:16.381Z,87.98
2018-06-04T00:05:16.394Z,89.03
2018-06-04T00:06:16.404Z,89.65
2018-06-04T00:07:16.416Z,89.37
2018-06-04T00:08:16.430Z,89.85
2018-06-04T00:09:16.489Z,90.52
2018-06-04T00:10:16.453Z,90.52
2018-06-04T00:11:16.470Z,91.19
2018-06-04T00:12:16.476Z,91.09
2018-06-04T00:13:16.493Z,91.67
2018-06-04T00:14:16.500Z,91.09
2018-06-04T00:15:16.515Z,91.00
2018-06-04T00:16:16.571Z,91.00
2018-06-04T00:17:16.542Z,91.57
2018-06-04T00:18:16.554Z,90.90
2018-06-04T00:19:16.566Z,89.94
2018-06-04T00:20:16.575Z,88.98
2018-06-04T00:21:16.592Z,88.51
2018-06-04T00:22:16.596Z,88.31
2018-06-04T00:23:16.616Z,89.18
2018-06-04T00:24:16.632Z,88.41
2018-06-04T00:25:16.634Z,88.60
2018-06-04T00:26:16.641Z,88.89
2018-06-04T00:27:16.659Z,89.65
2018-06-04T00:28:16.668Z,89.85
2018-06-04T00:29:16.680Z,90.33
2018-06-04T00:30:16.692Z,90.33
2018-06-04T00:31:16.705Z,91.00
2018-06-04T00:32:16.744Z,90.42
2018-06-04T00:33:16.728Z,89.85
2018-06-04T00:34:16.740Z,89.37
2018-06-04T00:35:16.752Z,89.75
2018-06-04T00:36:16.767Z,90.04
2018-06-04T00:37:16.777Z,90.14
2018-06-04T00:38:16.783Z,90.23
2018-06-04T00:39:16.802Z,90.33
2018-06-04T00:40:16.821Z,90.33
2018-06-04T00:41:16.823Z,90.61
2018-06-04T00:42:16.835Z,90.23
2018-06-04T00:43:16.848Z,88.79
2018-06-04T00:44:16.858Z,88.70
2018-06-04T00:45:16.872Z,87.93
2018-06-04T00:46:16.883Z,89.18
2018-06-04T00:47:16.905Z,88.98
2018-06-04T00:48:16.907Z,88.51
2018-06-04T00:49:16.917Z,88.02
2018-06-04T00:50:16.930Z,88.51
2018-06-04T00:51:16.942Z,88.89
2018-06-04T00:52:16.955Z,89.65
2018-06-04T00:53:16.968Z,88.79
2018-06-04T00:54:23.653Z,88.22
2018-06-04T00:55:16.992Z,88.12
2018-06-04T00:56:17.000Z,88.41
2018-06-04T00:57:17.014Z,87.93
2018-06-04T00:58:17.025Z,88.51
2018-06-04T00:59:17.038Z,89.04
2018-06-04T01:00:17.048Z,89.32
2018-06-04T01:01:17.065Z,89.90
2018-06-04T01:02:17.073Z,90.38
2018-06-04T01:03:17.087Z,90.09
2018-06-04T01:04:17.098Z,90.28
2018-06-04T01:05:17.111Z,90.47
2018-06-04T01:06:17.125Z,90.28
2018-06-04T01:07:17.133Z,90.00
2018-06-04T01:08:17.146Z,90.57
2018-06-04T01:09:17.160Z,90.67
2018-06-04T01:10:17.167Z,91.53
2018-06-04T01:11:17.178Z,91.14
2018-06-04T01:12:17.192Z,91.05
2018-06-04T01:13:17.202Z,90.38
2018-06-04T01:14:17.213Z,90.09
2018-06-04T01:15:17.229Z,90.38
2018-06-04T01:16:17.240Z,89.71
2018-06-04T01:17:17.247Z,89.90
2018-06-04T01:18:17.265Z,90.42
2018-06-04T01:19:17.270Z,90.04
2018-06-04T01:20:17.285Z,90.52
2018-06-04T01:21:17.297Z,90.42
2018-06-04T01:22:17.310Z,89.94
2018-06-04T01:23:17.325Z,89.80
2018-06-04T01:24:17.333Z,90.76
2018-06-04T01:25:17.349Z,90.76
2018-06-04T01:26:17.357Z,91.72
2018-06-04T01:27:17.369Z,92.20
2018-06-04T01:28:17.382Z,92.54
2018-06-04T01:29:17.400Z,93.11
2018-06-04T01:30:17.401Z,94.07
2018-06-04T01:31:17.422Z,94.55
2018-06-04T01:32:17.424Z,95.22
2018-06-04T01:33:17.435Z,94.64
2018-06-04T01:34:17.449Z,94.84
2018-06-04T01:35:17.462Z,95.41
2018-06-04T01:36:17.491Z,94.55
2018-06-04T01:37:17.482Z,95.12
2018-06-04T01:38:17.496Z,94.74
2018-06-04T01:39:17.509Z,93.11
2018-06-04T01:40:17.521Z,92.73
2018-06-04T01:41:17.531Z,93.44
2018-06-04T01:42:17.559Z,92.20
2018-06-04T01:43:17.555Z,90.76
2018-06-04T01:44:17.566Z,89.90
2018-06-04T01:45:17.577Z,89.90
2018-06-04T01:46:17.586Z,90.09
2018-06-04T01:47:17.626Z,88.75
2018-06-04T01:48:17.611Z,88.17
2018-06-04T01:49:17.620Z,88.84
2018-06-04T01:50:17.645Z,89.51
2018-06-04T01:51:17.649Z,89.80
2018-06-04T01:52:17.659Z,90.47
2018-06-04T01:53:17.669Z,90.47
2018-06-04T01:54:17.684Z,90.86
2018-06-04T01:55:17.694Z,89.13
2018-06-04T01:56:17.705Z,88.51
2018-06-04T01:57:17.715Z,89.18
2018-06-04T01:58:17.731Z,90.57
2018-06-04T01:59:17.740Z,91.43
2018-06-04T02:00:17.757Z,89.23
2018-06-04T02:01:17.764Z,88.99
2018-06-04T02:02:17.772Z,90.81
2018-06-04T02:03:17.790Z,91.53
2018-06-04T02:04:17.800Z,90.57
2018-06-04T02:05:17.811Z,90.38
2018-06-04T02:06:17.816Z,90.76
2018-06-04T02:07:17.833Z,91.10
2018-06-04T02:08:17.845Z,90.62
2018-06-04T02:09:17.855Z,91.49
2018-06-04T02:10:17.864Z,92.30
2018-06-04T02:11:17.885Z,92.44
2018-06-04T02:12:17.892Z,92.15
2018-06-04T02:13:17.901Z,92.30
2018-06-04T02:14:17.913Z,92.40
2018-06-04T02:15:17.922Z,92.21
2018-06-04T02:16:17.936Z,92.87
2018-06-04T02:17:17.951Z,91.96
2018-06-04T02:18:17.958Z,92.35
2018-06-04T02:19:17.969Z,93.21
2018-06-04T02:20:17.980Z,93.49
2018-06-04T02:21:18.000Z,92.82
2018-06-04T02:22:18.004Z,92.78
2018-06-04T02:23:18.017Z,93.45
2018-06-04T02:24:18.028Z,92.78
2018-06-04T02:25:18.060Z,92.44
2018-06-04T02:26:18.050Z,92.35
2018-06-04T02:27:18.063Z,92.54
2018-06-04T02:28:18.076Z,91.19
2018-06-04T02:29:18.085Z,90.23
2018-06-04T02:30:18.097Z,90.05
2018-06-04T02:31:18.110Z,91.49
2018-06-04T02:32:18.120Z,90.43
2018-06-04T02:33:18.128Z,90.05
2018-06-04T02:34:18.142Z,89.37
2018-06-04T02:35:18.155Z,88.42
2018-06-04T02:36:18.166Z,89.18
2018-06-04T02:37:18.178Z,90.14
2018-06-04T02:38:18.189Z,90.53
2018-06-04T02:39:18.201Z,90.33
2018-06-04T02:40:18.212Z,90.53
2018-06-04T02:41:18.220Z,90.62
2018-06-04T02:42:18.233Z,90.91
2018-06-04T02:43:18.252Z,90.91
2018-06-04T02:44:18.264Z,90.91
2018-06-04T02:45:18.270Z,91.39
2018-06-04T02:46:18.284Z,89.86
2018-06-04T02:47:18.287Z,90.72
2018-06-04T02:48:18.300Z,91.39
2018-06-04T02:49:18.313Z,90.39
2018-06-04T02:50:18.321Z,90.77
2018-06-04T02:51:18.333Z,89.81
2018-06-04T02:52:18.351Z,89.66
2018-06-04T02:53:18.359Z,89.47
2018-06-04T02:54:18.369Z,90.23
2018-06-04T02:55:18.378Z,90.00
2018-06-04T02:56:18.397Z,90.39
2018-06-04T02:57:18.400Z,90.62
2018-06-04T02:58:18.412Z,89.72
2018-06-04T02:59:18.423Z,90.62
2018-06-04T03:00:18.437Z,90.67
2018-06-04T03:01:18.443Z,91.44
2018-06-04T03:02:18.457Z,91.92
2018-06-04T03:03:18.468Z,92.11
2018-06-04T03:04:18.479Z,92.40
2018-06-04T03:05:18.491Z,92.87
2018-06-04T03:06:18.501Z,94.12
2018-06-04T03:07:18.513Z,93.69
2018-06-04T03:08:18.523Z,93.98
2018-06-04T03:09:18.536Z,94.21
2018-06-04T03:10:18.552Z,94.40
2018-06-04T03:11:18.566Z,93.83
2018-06-04T03:12:18.568Z,93.69
2018-06-04T03:13:18.586Z,93.69
2018-06-04T03:14:18.595Z,92.49
2018-06-04T03:15:18.603Z,92.01
2018-06-04T03:16:18.617Z,92.21
2018-06-04T03:17:18.623Z,91.72
2018-06-04T03:18:18.639Z,90.00
2018-06-04T03:19:18.647Z,90.96
2018-06-04T03:20:18.657Z,91.34
2018-06-04T03:21:18.668Z,90.96
2018-06-04T03:22:18.682Z,91.15
2018-06-04T03:23:18.695Z,91.53
2018-06-04T03:24:18.704Z,92.01
2018-06-04T03:25:18.714Z,92.40
2018-06-04T03:26:18.725Z,92.40
2018-06-04T03:27:18.737Z,93.07
2018-06-04T03:28:18.748Z,92.97
2018-06-04T03:29:18.755Z,93.35
2018-06-04T03:30:18.769Z,93.16
2018-06-04T03:31:18.786Z,92.78
2018-06-04T03:32:18.790Z,92.97
2018-06-04T03:33:18.801Z,91.92
2018-06-04T03:34:19.118Z,92.58
2018-06-04T03:35:18.822Z,93.16
2018-06-04T03:36:18.833Z,93.35
2018-06-04T03:37:18.846Z,93.07
2018-06-04T03:38:18.855Z,93.07
2018-06-04T03:39:18.870Z,93.16
2018-06-04T03:40:18.881Z,93.07
2018-06-04T03:41:18.889Z,92.87
2018-06-04T03:42:18.900Z,92.30
2018-06-04T03:43:18.910Z,92.01
2018-06-04T03:44:18.923Z,91.25
2018-06-04T03:45:18.933Z,92.11
2018-06-04T03:46:18.946Z,90.96
2018-06-04T03:47:18.955Z,91.25
2018-06-04T03:48:18.973Z,91.92
2018-06-04T03:49:18.980Z,92.01
2018-06-04T03:50:19.013Z,92.01
2018-06-04T03:51:18.999Z,92.40
2018-06-04T03:52:19.013Z,91.53
2018-06-04T03:53:19.022Z,92.49
2018-06-04T03:54:19.032Z,92.58
2018-06-04T03:55:19.047Z,92.78
2018-06-04T03:56:19.057Z,93.26
2018-06-04T03:57:19.067Z,93.26
2018-06-04T03:58:19.083Z,93.07
2018-06-04T03:59:19.089Z,92.87
2018-06-04T04:00:19.102Z,92.49
2018-06-04T04:01:19.107Z,92.87
2018-06-04T04:02:19.121Z,92.97
2018-06-04T04:03:19.142Z,92.97
2018-06-04T04:04:19.215Z,92.87
2018-06-04T04:05:19.158Z,92.87
2018-06-04T04:06:19.167Z,92.40
2018-06-04T04:07:19.178Z,92.30
2018-06-04T04:08:19.203Z,92.30
2018-06-04T04:09:19.199Z,92.44
2018-06-04T04:10:20.200Z,92.15
2018-06-04T04:11:19.224Z,92.25
2018-06-04T04:12:19.238Z,92.35
2018-06-04T04:13:19.243Z,93.88
2018-06-04T04:14:19.267Z,93.69
2018-06-04T04:15:19.268Z,94.17
2018-06-04T04:16:19.279Z,94.50
2018-06-04T04:17:19.293Z,94.60
2018-06-04T04:18:19.299Z,96.22
2018-06-04T04:19:19.318Z,97.04
2018-06-04T04:20:19.321Z,98.66
2018-06-04T04:21:19.341Z,98.86
2018-06-04T04:22:19.343Z,98.57
2018-06-04T04:23:19.357Z,98.95
2018-06-04T04:24:19.365Z,99.33
2018-06-04T04:25:19.379Z,99.99
2018-06-04T04:26:19.389Z,99.77
2018-06-04T04:27:19.399Z,99.19
2018-06-04T04:28:19.414Z,99.00
2018-06-04T04:29:19.420Z,99.19
2018-06-04T04:30:19.432Z,99.67
2018-06-04T04:31:19.442Z,99.38
2018-06-04T04:32:19.458Z,99.48
2018-06-04T04:33:19.468Z,99.99
2018-06-04T04:34:19.479Z,99.99
2018-06-04T04:35:19.490Z,99.99
2018-06-04T04:36:19.504Z,99.99
2018-06-04T04:37:19.510Z,99.99
2018-06-04T04:38:19.521Z,99.99
2018-06-04T04:39:19.532Z,99.99
2018-06-04T04:40:19.549Z,99.99
2018-06-04T04:41:19.558Z,99.99
2018-06-04T04:42:19.566Z,99.99
2018-06-04T04:43:19.578Z,99.99
2018-06-04T04:44:19.590Z,99.99
2018-06-04T04:45:19.608Z,99.99
2018-06-04T04:46:19.613Z,99.99
2018-06-04T04:47:19.623Z,99.99
2018-06-04T04:48:19.636Z,99.99
2018-06-04T04:49:19.645Z,99.99
2018-06-04T04:50:19.654Z,99.99
2018-06-04T04:51:19.676Z,99.99
2018-06-04T04:52:19.681Z,99.99
2018-06-04T04:53:19.691Z,99.99
2018-06-04T04:54:19.702Z,99.99
2018-06-04T04:55:19.715Z,99.99
2018-06-04T04:56:19.725Z,99.99
2018-06-04T04:57:19.736Z,99.99
2018-06-04T04:58:19.749Z,99.99
2018-06-04T04:59:19.757Z,99.99
2018-06-04T05:00:19.770Z,99.99
2018-06-04T05:01:19.785Z,99.99
2018-06-04T05:02:19.793Z,99.99
2018-06-04T05:03:19.805Z,99.99
2018-06-04T05:04:19.817Z,99.99
2018-06-04T05:05:19.826Z,99.99
2018-06-04T05:06:19.839Z,99.99
2018-06-04T05:07:19.849Z,99.99
2018-06-04T05:08:19.862Z,99.99
2018-06-04T05:09:19.872Z,99.99
2018-06-04T05:10:19.889Z,99.99
2018-06-04T05:11:19.896Z,99.99
2018-06-04T05:12:19.907Z,99.99
2018-06-04T05:13:19.919Z,99.99
2018-06-04T05:14:19.929Z,99.99
2018-06-04T05:15:19.942Z,99.99
2018-06-04T05:16:19.952Z,99.99
2018-06-04T05:17:19.966Z,99.99
2018-06-04T05:18:19.977Z,99.99
2018-06-04T05:19:19.991Z,99.99
2018-06-04T05:20:19.999Z,99.99
2018-06-04T05:21:20.011Z,99.99
2018-06-04T05:22:20.023Z,99.99
2018-06-04T05:23:20.037Z,99.99
2018-06-04T05:24:20.045Z,99.99
2018-06-04T05:25:20.057Z,99.99
2018-06-04T05:26:20.068Z,99.99
2018-06-04T05:27:20.081Z,99.99
2018-06-04T05:28:20.091Z,99.99
2018-06-04T05:29:20.102Z,99.99
2018-06-04T05:30:20.114Z,99.99
2018-06-04T05:31:20.127Z,99.99
2018-06-04T05:32:20.138Z,99.99
2018-06-04T05:33:20.151Z,99.99
2018-06-04T05:34:20.164Z,99.99
2018-06-04T05:35:20.172Z,99.99
2018-06-04T05:36:20.186Z,99.99
2018-06-04T05:37:20.197Z,99.99
2018-06-04T05:38:20.209Z,99.99
2018-06-04T05:39:20.220Z,99.99
2018-06-04T05:40:20.233Z,99.99
2018-06-04T05:41:20.246Z,99.99
2018-06-04T05:42:20.291Z,99.99
2018-06-04T05:43:20.273Z,99.99
2018-06-04T05:44:20.282Z,99.99
2018-06-04T05:45:20.297Z,99.99
2018-06-04T05:46:20.303Z,99.99
2018-06-04T05:47:20.316Z,99.99
2018-06-04T05:48:20.328Z,99.99
2018-06-04T05:49:20.338Z,99.99
2018-06-04T05:50:20.347Z,99.99
2018-06-04T05:51:20.367Z,99.99
2018-06-04T05:52:20.372Z,99.99
2018-06-04T05:53:20.388Z,99.99
2018-06-04T05:54:20.399Z,99.99
2018-06-04T05:55:20.415Z,99.99
2018-06-04T05:56:20.445Z,99.99
2018-06-04T05:57:20.435Z,99.99
2018-06-04T05:58:20.444Z,99.99
2018-06-04T05:59:20.456Z,99.99
2018-06-04T06:00:20.473Z,99.99
2018-06-04T06:01:20.485Z,99.99
2018-06-04T06:02:20.493Z,99.99
2018-06-04T06:03:20.505Z,99.99
2018-06-04T06:04:20.518Z,99.99
2018-06-04T06:05:20.531Z,99.99
2018-06-04T06:06:20.538Z,99.99
2018-06-04T06:07:20.551Z,99.99
2018-06-04T06:08:20.606Z,99.99
2018-06-04T06:09:20.578Z,99.99
2018-06-04T06:10:20.587Z,99.99
2018-06-04T06:11:20.601Z,99.99
2018-06-04T06:12:20.618Z,99.99
2018-06-04T06:13:20.626Z,99.99
2018-06-04T06:14:20.693Z,99.99
2018-06-04T06:15:20.649Z,99.99
2018-06-04T06:16:20.662Z,99.99
2018-06-04T06:17:20.668Z,99.99
2018-06-04T06:18:20.687Z,99.99
2018-06-04T06:19:20.695Z,99.99
2018-06-04T06:20:20.709Z,99.99
2018-06-04T06:21:20.719Z,99.99
2018-06-04T06:22:20.738Z,99.99
2018-06-04T06:23:20.741Z,99.99
2018-06-04T06:24:20.778Z,99.99
2018-06-04T06:25:20.851Z,99.99
2018-06-04T06:26:20.778Z,99.99
2018-06-04T06:27:20.793Z,99.99
2018-06-04T06:28:20.803Z,99.25
2018-06-04T06:29:20.816Z,98.10
2018-06-04T06:30:20.830Z,99.73
2018-06-04T06:31:20.843Z,98.48
2018-06-04T06:32:20.860Z,97.62
2018-06-04T06:33:20.869Z,98.58
2018-06-04T06:34:20.877Z,98.10
2018-06-04T06:35:20.890Z,99.25
2018-06-04T06:36:20.901Z,99.25
2018-06-04T06:37:20.912Z,99.88
2018-06-04T06:38:20.925Z,99.99
2018-06-04T06:39:20.939Z,99.99
2018-06-04T06:40:20.956Z,99.99
2018-06-04T06:41:20.972Z,99.99
2018-06-04T06:42:20.981Z,99.99
2018-06-04T06:43:20.989Z,99.99
2018-06-04T06:44:21.002Z,99.99
2018-06-04T06:45:21.015Z,96.85
2018-06-04T06:46:21.026Z,97.62
2018-06-04T06:47:21.048Z,97.47
2018-06-04T06:48:21.055Z,96.70
2018-06-04T06:49:21.065Z,96.42
2018-06-04T06:50:21.076Z,97.28
2018-06-04T06:51:21.090Z,98.72
2018-06-04T06:52:21.104Z,99.99
2018-06-04T06:53:21.112Z,99.99
2018-06-04T06:54:23.744Z,99.99
2018-06-04T06:55:21.147Z,98.72
2018-06-04T06:56:21.151Z,97.76
2018-06-04T06:57:21.160Z,96.22
2018-06-04T06:58:21.174Z,97.47
2018-06-04T06:59:21.186Z,98.24
2018-06-04T07:00:21.201Z,97.14
2018-06-04T07:01:21.216Z,95.84
2018-06-04T07:02:21.227Z,95.55
2018-06-04T07:03:21.240Z,94.87
2018-06-04T07:04:21.249Z,93.24
2018-06-04T07:05:21.264Z,92.18
2018-06-04T07:06:21.276Z,91.31
2018-06-04T07:07:21.291Z,92.28
2018-06-04T07:08:21.301Z,93.82
2018-06-04T07:09:21.313Z,93.43
2018-06-04T07:10:21.324Z,94.01
2018-06-04T07:11:21.339Z,96.03
2018-06-04T07:12:21.350Z,94.64
2018-06-04T07:13:21.364Z,93.77
2018-06-04T07:14:21.432Z,92.03
2018-06-04T07:15:21.389Z,90.69
2018-06-04T07:16:21.422Z,88.57
2018-06-04T07:17:21.414Z,87.22
2018-06-04T07:18:21.427Z,90.11
2018-06-04T07:19:21.439Z,90.59
2018-06-04T07:20:21.460Z,88.04
2018-06-04T07:21:21.519Z,89.67
2018-06-04T07:22:21.479Z,90.73
2018-06-04T07:23:21.489Z,89.09
2018-06-04T07:24:21.505Z,86.78
2018-06-04T07:25:21.519Z,87.74
2018-06-04T07:26:21.530Z,87.84
2018-06-04T07:27:21.547Z,87.12
2018-06-04T07:28:21.557Z,86.73
2018-06-04T07:29:21.570Z,86.63
2018-06-04T07:30:21.581Z,84.80
2018-06-04T07:31:21.594Z,87.40
2018-06-04T07:32:21.608Z,89.19
2018-06-04T07:33:21.622Z,89.19
2018-06-04T07:35:27.115Z,90.64
2018-06-04T07:36:22.648Z,91.12
2018-06-04T07:37:22.160Z,90.83
2018-06-04T07:38:22.036Z,90.73
2018-06-04T07:39:22.011Z,88.65
2018-06-04T07:40:21.914Z,87.60
2018-06-04T07:41:21.790Z,88.56
2018-06-04T07:42:21.793Z,89.04
2018-06-04T07:43:21.920Z,88.85
2018-06-04T07:44:21.851Z,89.72
2018-06-04T07:45:21.793Z,87.79
2018-06-04T07:46:21.822Z,88.65
2018-06-04T07:47:21.838Z,86.25
2018-06-04T07:48:21.819Z,84.99
2018-06-04T07:49:21.847Z,85.19
2018-06-04T07:50:21.843Z,85.52
2018-06-04T07:51:21.862Z,86.39
2018-06-04T07:52:21.871Z,87.26
2018-06-04T07:53:21.896Z,86.68
2018-06-04T07:54:31.101Z,84.27
2018-06-04T07:56:35.596Z,85.23
2018-06-04T07:57:38.979Z,82.28
2018-06-04T07:59:32.125Z,81.32
2018-06-04T08:00:31.966Z,81.60
2018-06-04T08:01:32.316Z,80.45
2018-06-04T08:02:42.268Z,80.74
2018-06-04T08:04:36.994Z,82.76
2018-06-04T08:05:36.581Z,81.90
2018-06-04T08:07:42.145Z,85.56
2018-06-04T08:08:42.745Z,84.59
2018-06-04T08:12:30.182Z,84.31
2018-06-04T08:13:30.308Z,85.37
2018-06-04T08:14:30.475Z,84.50
2018-06-04T08:15:38.272Z,83.34
2018-06-04T08:17:34.722Z,86.08
2018-06-04T08:18:34.806Z,84.64
2018-06-04T08:20:39.300Z,82.71
2018-06-04T08:21:39.255Z,82.23
2018-06-04T08:23:43.910Z,84.54
2018-06-04T08:24:43.796Z,82.71
2018-06-04T08:26:49.323Z,82.32
2018-06-04T08:27:49.355Z,81.93
2018-06-04T08:29:53.853Z,83.52
2018-06-04T08:30:54.126Z,82.75
2018-06-04T08:32:58.474Z,81.40
2018-06-04T08:33:58.459Z,82.17
2018-06-04T08:36:02.993Z,83.33
2018-06-04T08:37:02.967Z,83.33
2018-06-04T08:39:07.635Z,82.65
2018-06-04T08:40:07.411Z,81.05
2018-06-04T08:42:01.021Z,80.47
2018-06-04T08:43:00.847Z,78.83
2018-06-04T08:45:05.511Z,78.15
2018-06-04T08:46:05.360Z,78.25
2018-06-04T08:48:18.693Z,79.12
2018-06-04T08:49:09.986Z,78.92
2018-06-04T08:51:18.934Z,78.92
2018-06-04T08:52:19.029Z,79.02
2018-06-04T08:54:23.599Z,79.70
2018-06-04T08:55:23.452Z,81.44
2018-06-04T08:57:35.844Z,82.21
2018-06-04T08:58:27.987Z,79.22
2018-06-04T09:00:45.340Z,79.70
2018-06-04T09:01:43.872Z,77.51
2018-06-04T09:03:49.919Z,79.54
2018-06-04T09:04:40.546Z,79.74
2018-06-04T09:05:40.636Z,76.93
2018-06-04T09:06:40.815Z,75.87
2018-06-04T09:07:40.719Z,78.19
2018-06-04T09:08:40.709Z,78.96
2018-06-04T09:09:40.623Z,79.06
2018-06-04T09:10:40.672Z,77.32
2018-06-04T09:11:40.654Z,75.29
2018-06-04T09:12:40.675Z,73.36
2018-06-04T09:13:40.681Z,74.13
2018-06-04T09:14:40.690Z,75.39
2018-06-04T09:15:40.749Z,75.39
2018-06-04T09:16:40.752Z,75.62
2018-06-04T09:17:40.733Z,72.30
2018-06-04T09:18:40.758Z,74.36
2018-06-04T09:19:40.761Z,74.85
2018-06-04T09:20:40.782Z,76.39
2018-06-04T09:21:40.793Z,74.94
2018-06-04T09:22:40.836Z,75.04
2018-06-04T09:23:40.835Z,73.49
2018-06-04T09:24:40.842Z,73.53
2018-06-04T09:25:40.847Z,74.40
2018-06-04T09:26:40.865Z,74.59
2018-06-04T09:27:40.878Z,75.75
2018-06-04T09:28:40.896Z,75.07
2018-06-04T09:29:40.907Z,72.95
2018-06-04T09:30:40.923Z,71.59
2018-06-04T09:31:40.934Z,71.53
2018-06-04T09:32:40.971Z,71.30
2018-06-04T09:33:40.984Z,69.75
2018-06-04T09:34:40.981Z,70.08
2018-06-04T09:35:40.997Z,72.66
2018-06-04T09:36:41.008Z,73.75
2018-06-04T09:37:41.076Z,72.69
2018-06-04T09:38:41.039Z,72.79
2018-06-04T09:39:41.067Z,70.18
2018-06-04T09:40:41.073Z,72.69
2018-06-04T09:41:51.515Z,72.79
2018-06-04T09:43:50.554Z,71.04
2018-06-04T09:44:50.089Z,70.37
2018-06-04T09:46:54.877Z,70.37
2018-06-04T09:48:02.362Z,69.59
2018-06-04T09:49:59.340Z,67.98
2018-06-04T09:51:08.125Z,67.98
2018-06-04T09:53:04.838Z,69.63
2018-06-04T09:54:12.572Z,68.95
2018-06-04T09:56:17.951Z,68.18
2018-06-04T09:57:09.243Z,68.66
2018-06-04T09:59:13.897Z,69.34
2018-06-04T10:00:13.782Z,68.08
2018-06-04T10:02:07.184Z,66.05
2018-06-04T10:03:15.035Z,67.92
2018-06-04T10:05:11.763Z,65.85
2018-06-04T10:07:45.229Z,67.79
2018-06-04T10:08:45.161Z,65.56
2018-06-04T10:09:53.925Z,64.82
2018-06-04T10:11:49.803Z,64.62
2018-06-04T10:12:50.443Z,61.14
2018-06-04T10:15:06.326Z,67.72
2018-06-04T10:16:02.282Z,66.56
2018-06-04T10:18:08.858Z,62.56
2018-06-04T10:18:59.700Z,64.89
2018-06-04T10:19:59.868Z,66.37
2018-06-04T10:21:09.241Z,65.79
2018-06-04T10:23:08.980Z,68.05
2018-06-04T10:23:56.040Z,67.05
2018-06-04T10:24:55.684Z,65.43
2018-06-04T10:25:55.717Z,62.52
2018-06-04T10:26:55.651Z,65.53
2018-06-04T10:27:55.683Z,65.92
2018-06-04T10:28:55.679Z,64.34
2018-06-04T10:29:55.689Z,65.92
2018-06-04T10:30:55.708Z,64.95
2018-06-04T10:31:56.211Z,63.10
2018-06-04T10:32:55.729Z,64.17
2018-06-04T10:33:55.749Z,63.62
2018-06-04T10:34:55.798Z,62.72
2018-06-04T10:35:55.779Z,63.23
2018-06-04T10:36:55.790Z,63.53
2018-06-04T10:37:55.881Z,64.69
2018-06-04T10:38:55.821Z,63.62
2018-06-04T10:39:55.858Z,63.53
2018-06-04T10:40:55.861Z,65.37
2018-06-04T10:41:56.669Z,63.72
2018-06-04T10:42:55.885Z,65.17
2018-06-04T10:43:55.899Z,67.21
2018-06-04T10:44:55.917Z,64.37
2018-06-04T10:45:55.935Z,65.63
2018-06-04T10:46:55.946Z,64.88
2018-06-04T10:47:55.961Z,64.11
2018-06-04T10:48:55.992Z,62.46
2018-06-04T10:49:55.993Z,61.19
2018-06-04T10:50:56.009Z,63.33
2018-06-04T10:51:56.023Z,63.43
2018-06-04T10:52:56.042Z,65.47
2018-06-04T10:53:56.056Z,62.75
2018-06-04T10:54:56.096Z,61.88
2018-06-04T10:55:56.085Z,63.23
2018-06-04T10:56:56.107Z,61.10
2018-06-04T10:57:56.117Z,63.33
2018-06-04T10:58:56.141Z,64.11
2018-06-04T10:59:56.149Z,63.62
2018-06-04T11:00:56.170Z,62.29
2018-06-04T11:01:56.179Z,62.19
2018-06-04T11:02:56.196Z,61.04
2018-06-04T11:03:56.215Z,61.81
2018-06-04T11:04:56.274Z,60.77
2018-06-04T11:05:56.242Z,58.73
2018-06-04T11:06:56.302Z,59.70
2018-06-04T11:07:56.278Z,61.25
2018-06-04T11:08:56.291Z,60.97
2018-06-04T11:09:56.305Z,56.52
2018-06-04T11:10:56.322Z,54.88
2018-06-04T11:11:56.335Z,54.97
2018-06-04T11:12:56.396Z,59.34
2018-06-04T11:13:56.370Z,62.94
2018-06-04T11:14:56.382Z,59.92
2018-06-04T11:15:56.399Z,54.90
2018-06-04T11:16:56.415Z,53.74
2018-06-04T11:17:56.434Z,53.45
2018-06-04T11:18:56.477Z,56.85
2018-06-04T11:19:56.477Z,57.72
2018-06-04T11:20:56.480Z,60.77
2018-06-04T11:21:56.502Z,61.83
2018-06-04T11:22:56.521Z,62.32
2018-06-04T11:23:56.539Z,63.20
2018-06-04T11:24:56.563Z,63.59
2018-06-04T11:25:56.582Z,61.25
2018-06-04T11:26:56.583Z,62.51
2018-06-04T11:27:56.594Z,58.04
2018-06-04T11:28:56.627Z,57.46
2018-06-04T11:29:56.649Z,57.78
2018-06-04T11:30:56.646Z,54.79
2018-06-04T11:31:56.663Z,53.36
2018-06-04T11:32:56.686Z,52.02
2018-06-04T11:33:56.707Z,50.78
2018-06-04T11:34:56.723Z,49.66
2018-06-04T11:35:56.735Z,50.75
2018-06-04T11:36:56.755Z,50.49
2018-06-04T11:37:56.771Z,46.62
2018-06-04T11:38:56.795Z,48.24
2018-06-04T11:39:56.813Z,47.45
2018-06-04T11:40:56.832Z,46.79
2018-06-04T11:41:56.863Z,45.73
2018-06-04T11:42:56.883Z,45.66
2018-06-04T11:43:56.955Z,44.88
2018-06-04T11:44:56.920Z,44.82
2018-06-04T11:45:56.941Z,43.08
2018-06-04T11:46:56.966Z,41.05
2018-06-04T11:47:56.986Z,40.86
2018-06-04T11:48:57.022Z,43.30
2018-06-04T11:49:57.033Z,45.50
2018-06-04T11:50:57.061Z,44.05
2018-06-04T11:51:57.086Z,42.45
2018-06-04T11:52:57.105Z,43.23
2018-06-04T11:53:57.130Z,42.57
2018-06-04T11:54:57.175Z,40.90
2018-06-04T11:55:57.180Z,42.39
2018-06-04T11:56:57.200Z,41.21
2018-06-04T11:57:57.227Z,41.72
2018-06-04T11:58:57.252Z,40.86
2018-06-04T11:59:57.279Z,40.00
2018-06-04T12:00:57.302Z,39.92
2018-06-04T12:01:57.375Z,37.93
2018-06-04T12:02:57.356Z,37.92
2018-06-04T12:03:57.387Z,36.93
2018-06-04T12:04:57.411Z,37.72
2018-06-04T12:05:57.469Z,37.44
2018-06-04T12:06:57.462Z,39.40
2018-06-04T12:07:57.495Z,39.23
2018-06-04T12:08:57.526Z,39.50
2018-06-04T12:09:57.543Z,38.48
2018-06-04T12:10:57.569Z,37.68
2018-06-04T12:11:57.595Z,40.45
2018-06-04T12:12:57.630Z,38.40
2018-06-04T12:13:57.651Z,37.54
2018-06-04T12:14:57.677Z,37.97
2018-06-04T12:15:57.705Z,36.26
2018-06-04T12:16:57.743Z,35.95
2018-06-04T12:17:57.769Z,36.11
2018-06-04T12:18:57.805Z,39.35
2018-06-04T12:19:57.816Z,38.19
2018-06-04T12:20:57.846Z,37.72
2018-06-04T12:21:57.890Z,37.74
2018-06-04T12:22:57.900Z,36.28
2018-06-04T12:23:57.938Z,36.49
2018-06-04T12:24:57.959Z,38.24
2018-06-04T12:25:57.983Z,37.24
2018-06-04T12:26:58.008Z,35.97
2018-06-04T12:27:58.035Z,37.44
2018-06-04T12:28:58.063Z,36.05
2018-06-04T12:29:58.106Z,36.95
2018-06-04T12:30:58.116Z,37.55
2018-06-04T12:31:58.140Z,36.69
2018-06-04T12:32:58.165Z,36.32
2018-06-04T12:33:58.191Z,36.55
2018-06-04T12:34:58.225Z,36.84
2018-06-04T12:35:58.268Z,36.25
2018-06-04T12:36:58.268Z,37.89
2018-06-04T12:37:58.290Z,33.97
2018-06-04T12:38:58.315Z,34.84
2018-06-04T12:39:58.339Z,35.21
2018-06-04T12:40:58.361Z,33.95
2018-06-04T12:41:58.392Z,33.97
2018-06-04T12:42:58.409Z,33.17
2018-06-04T12:43:58.445Z,34.47
2018-06-04T12:44:58.460Z,35.18
2018-06-04T12:45:58.480Z,34.59
2018-06-04T12:46:58.501Z,34.01
2018-06-04T12:47:58.533Z,33.15
2018-06-04T12:48:58.550Z,33.97
2018-06-04T12:49:58.573Z,32.29
2018-06-04T12:50:58.598Z,31.72
2018-06-04T12:51:58.619Z,30.26
2018-06-04T12:52:58.650Z,30.62
2018-06-04T12:53:58.670Z,33.59
2018-06-04T12:54:58.694Z,31.21
2018-06-04T12:55:58.726Z,32.13
2018-06-04T12:56:58.745Z,32.32
2018-06-04T12:57:58.769Z,30.68
2018-06-04T12:58:58.793Z,30.27
2018-06-04T12:59:58.817Z,30.99
2018-06-04T13:00:58.844Z,30.30
2018-06-04T13:01:58.873Z,32.37
2018-06-04T13:02:58.908Z,31.38
2018-06-04T13:03:58.940Z,31.40
2018-06-04T13:04:59.070Z,30.91
2018-06-04T13:05:58.994Z,31.60
2018-06-04T13:06:59.008Z,30.29
2018-06-04T13:07:59.033Z,30.63
2018-06-04T13:08:59.065Z,31.14
2018-06-04T13:09:59.098Z,30.76
2018-06-04T13:10:59.119Z,29.20
2018-06-04T13:11:59.148Z,29.21
2018-06-04T13:12:59.184Z,30.52
2018-06-04T13:13:59.203Z,29.41
2018-06-04T13:14:59.230Z,28.64
2018-06-04T13:15:59.262Z,30.91
2018-06-04T13:16:59.291Z,31.60
2018-06-04T13:17:59.318Z,32.39
2018-06-04T13:19:00.199Z,32.80
2018-06-04T13:19:59.374Z,32.31
2018-06-04T13:20:59.407Z,33.75
2018-06-04T13:21:59.441Z,34.55
2018-06-04T13:22:59.463Z,33.47
2018-06-04T13:23:59.496Z,31.38
2018-06-04T13:24:59.521Z,33.44
2018-06-04T13:25:59.550Z,33.42
2018-06-04T13:26:59.580Z,32.56
2018-06-04T13:27:59.612Z,31.68
2018-06-04T13:28:59.645Z,34.39
2018-06-04T13:29:59.676Z,34.27
2018-06-04T13:30:59.693Z,32.29
2018-06-04T13:31:59.723Z,32.95